Time;durP1;ratioP1;P1;durP2;ratioP2;P2;SDS_P1;SDS_P2;PMS_P1;PMS_P2;Temp;Humidity;BMP_temperature;BMP_pressure;BME280_temperature;BME280_humidity;BME280_pressure;Samples;Min_cycle;Max_cycle;Signal;HPM_P1;HPM_P2
2022/08/29 00:00:16;;;;;;;;;1.00;1.00;;;;;;;;5022450;28;8865;-82
2022/08/29 00:02:46;;;;;;;;;0.00;0.00;;;;;;;;5022066;28;8995;-79
2022/08/29 00:05:13;;;;;;;;;1.00;1.00;;;;;;;;5021420;28;8884;-80
2022/08/29 00:07:40;;;;;;;;;1.00;1.00;;;;;;;;5022898;28;8845;-80
2022/08/29 00:10:08;;;;;;;;;1.00;1.00;;;;;;;;5021634;28;8885;-79
2022/08/29 00:12:36;;;;;;;;;3.40;1.80;;;;;;;;5022971;28;8890;-75
2022/08/29 00:15:05;;;;;;;;;1.00;1.00;;;;;;;;5022227;28;8911;-80
2022/08/29 00:17:33;;;;;;;;;0.50;0.50;;;;;;;;5019611;28;8893;-82
2022/08/29 00:20:03;;;;;;;;;0.60;0.60;;;;;;;;5005842;28;8930;-79
2022/08/29 00:22:30;;;;;;;;;1.00;1.00;;;;;;;;5020553;28;8872;-80
2022/08/29 00:25:01;;;;;;;;;1.50;1.00;;;;;;;;5021580;28;8881;-78
2022/08/29 00:27:29;;;;;;;;;1.00;1.00;;;;;;;;5023459;28;8889;-81
2022/08/29 00:29:56;;;;;;;;;2.00;0.00;;;;;;;;5021943;28;8890;-79
2022/08/29 00:32:23;;;;;;;;;1.00;1.00;;;;;;;;5020414;28;8821;-83
2022/08/29 00:34:51;;;;;;;;;1.00;1.00;;;;;;;;5020546;28;8895;-76
2022/08/29 00:37:20;;;;;;;;;1.40;1.00;;;;;;;;5018119;28;8920;-80
2022/08/29 00:39:47;;;;;;;;;1.00;1.00;;;;;;;;5018170;28;8999;-80
2022/08/29 00:42:17;;;;;;;;;1.00;1.00;;;;;;;;5021601;28;8880;-80
2022/08/29 00:44:45;;;;;;;;;1.00;1.00;;;;;;;;5015083;28;8982;-78
2022/08/29 00:47:13;;;;;;;;;1.00;1.00;;;;;;;;5020628;28;9807;-82
2022/08/29 00:49:43;;;;;;;;;1.00;1.00;;;;;;;;5018195;28;8899;-83
2022/08/29 00:52:14;;;;;;;;;1.00;1.00;;;;;;;;5019695;28;8882;-84
2022/08/29 00:54:48;;;;;;;;;1.75;1.75;;;;;;;;5017562;28;8910;-85
2022/08/29 00:57:16;;;;;;;;;1.00;1.00;;;;;;;;5020477;28;9019;-77
2022/08/29 00:59:43;;;;;;;;;1.00;1.00;;;;;;;;5021908;28;8877;-79
2022/08/29 01:02:11;;;;;;;;;1.00;1.00;;;;;;;;5016923;28;8821;-78
2022/08/29 01:04:39;;;;;;;;;1.00;1.00;;;;;;;;5019092;28;8919;-76
2022/08/29 01:07:06;;;;;;;;;1.00;1.00;;;;;;;;5001388;28;8904;-78
2022/08/29 01:09:35;;;;;;;;;0.25;0.25;;;;;;;;5020194;28;8868;-77
2022/08/29 01:14:50;;;;;;;;;1.00;1.00;;;;;;;;5018894;28;8873;-78
2022/08/29 01:17:21;;;;;;;;;0.00;0.00;;;;;;;;5021475;28;8920;-81
2022/08/29 01:19:52;;;;;;;;;1.00;1.00;;;;;;;;5018024;28;9029;-76
2022/08/29 01:22:37;;;;;;;;;1.00;1.00;;;;;;;;5021706;28;8884;-76
2022/08/29 01:25:10;;;;;;;;;1.00;1.00;;;;;;;;5021531;28;8867;-81
2022/08/29 01:27:39;;;;;;;;;2.00;0.75;;;;;;;;5021150;28;8868;-80
2022/08/29 01:30:08;;;;;;;;;0.50;0.50;;;;;;;;5022017;28;8881;-79
2022/08/29 01:32:36;;;;;;;;;1.00;1.00;;;;;;;;5024974;28;8876;-82
2022/08/29 01:35:07;;;;;;;;;0.00;0.00;;;;;;;;5007315;28;8903;-82
2022/08/29 01:37:38;;;;;;;;;1.00;1.00;;;;;;;;5022733;28;9018;-83
2022/08/29 01:40:09;;;;;;;;;0.25;0.25;;;;;;;;5023561;28;8885;-78
2022/08/29 01:42:36;;;;;;;;;1.00;1.00;;;;;;;;5005973;28;8872;-80
2022/08/29 01:45:06;;;;;;;;;1.00;1.00;;;;;;;;5019848;28;8893;-79
2022/08/29 01:47:35;;;;;;;;;1.00;1.00;;;;;;;;5025286;28;9692;-77
2022/08/29 01:50:03;;;;;;;;;1.00;1.00;;;;;;;;5021702;28;8899;-77
2022/08/29 01:52:31;;;;;;;;;1.00;1.00;;;;;;;;5023950;28;8959;-77
2022/08/29 01:54:59;;;;;;;;;1.00;1.00;;;;;;;;5024499;28;8885;-77
2022/08/29 01:57:27;;;;;;;;;1.50;1.50;;;;;;;;5026667;28;8890;-77
2022/08/29 01:59:55;;;;;;;;;2.50;1.00;;;;;;;;5022536;28;8844;-77
2022/08/29 02:02:25;;;;;;;;;0.75;0.75;;;;;;;;5022256;28;8851;-81
2022/08/29 02:04:52;;;;;;;;;1.00;1.00;;;;;;;;5024905;28;8852;-80
2022/08/29 02:07:24;;;;;;;;;1.25;1.25;;;;;;;;5020000;28;8913;-80
2022/08/29 02:09:52;;;;;;;;;3.00;1.25;;;;;;;;5021690;28;8993;-80
2022/08/29 02:12:19;;;;;;;;;0.25;0.25;;;;;;;;5024176;28;8903;-76
2022/08/29 02:14:49;;;;;;;;;0.00;0.00;;;;;;;;5023919;28;8876;-81
2022/08/29 02:17:16;;;;;;;;;1.00;1.00;;;;;;;;5018890;28;8837;-82
2022/08/29 02:19:44;;;;;;;;;1.75;1.75;;;;;;;;5021778;28;8915;-82
2022/08/29 02:22:12;;;;;;;;;1.00;1.00;;;;;;;;5024704;28;8868;-83
2022/08/29 02:24:40;;;;;;;;;1.00;1.00;;;;;;;;5021460;28;8891;-77
2022/08/29 02:27:08;;;;;;;;;2.00;2.00;;;;;;;;5028668;28;9023;-80
2022/08/29 02:29:36;;;;;;;;;1.00;1.00;;;;;;;;5022119;28;8899;-77
2022/08/29 02:32:05;;;;;;;;;1.00;1.00;;;;;;;;5022184;28;8910;-76
2022/08/29 02:34:32;;;;;;;;;1.00;1.00;;;;;;;;5023525;28;8861;-78
2022/08/29 02:37:00;;;;;;;;;1.50;0.00;;;;;;;;5024707;28;8894;-77
2022/08/29 02:39:27;;;;;;;;;1.00;1.00;;;;;;;;5020897;28;8955;-79
2022/08/29 02:41:54;;;;;;;;;1.00;1.00;;;;;;;;5026954;28;8857;-82
2022/08/29 02:44:22;;;;;;;;;0.25;0.25;;;;;;;;5023866;28;8926;-82
2022/08/29 02:46:49;;;;;;;;;2.50;1.00;;;;;;;;5022230;28;8886;-83
2022/08/29 02:49:18;;;;;;;;;0.50;0.50;;;;;;;;5023064;28;8868;-80
2022/08/29 02:51:45;;;;;;;;;1.00;1.00;;;;;;;;5018423;28;8884;-80
2022/08/29 02:54:15;;;;;;;;;1.00;1.00;;;;;;;;5022779;28;8872;-80
2022/08/29 02:56:43;;;;;;;;;1.00;1.00;;;;;;;;5003445;28;8856;-82
2022/08/29 02:59:10;;;;;;;;;1.00;1.00;;;;;;;;5022025;28;8903;-81
2022/08/29 03:01:38;;;;;;;;;1.00;1.00;;;;;;;;5023966;28;8825;-83
2022/08/29 03:04:06;;;;;;;;;1.00;1.00;;;;;;;;5023132;28;8893;-82
2022/08/29 03:06:34;;;;;;;;;1.50;1.50;;;;;;;;5006054;28;8893;-80
2022/08/29 03:09:02;;;;;;;;;1.00;1.00;;;;;;;;5019889;28;8880;-82
2022/08/29 03:11:29;;;;;;;;;1.00;1.00;;;;;;;;5022864;28;8876;-84
2022/08/29 03:13:57;;;;;;;;;3.75;2.00;;;;;;;;5023694;28;8979;-84
2022/08/29 03:16:24;;;;;;;;;1.75;1.75;;;;;;;;5025890;28;8918;-84
2022/08/29 03:18:51;;;;;;;;;1.00;1.00;;;;;;;;5021645;28;8868;-78
2022/08/29 03:21:20;;;;;;;;;2.00;2.00;;;;;;;;5021375;28;8884;-83
2022/08/29 03:23:50;;;;;;;;;2.00;2.00;;;;;;;;5023350;28;9011;-79
2022/08/29 03:26:18;;;;;;;;;2.00;1.00;;;;;;;;5019807;28;8880;-82
2022/08/29 03:28:46;;;;;;;;;0.75;0.75;;;;;;;;5021702;28;8892;-79
2022/08/29 03:31:13;;;;;;;;;1.50;1.50;;;;;;;;5023170;28;8930;-81
2022/08/29 03:33:40;;;;;;;;;1.00;1.00;;;;;;;;5023220;28;9698;-81
2022/08/29 03:36:08;;;;;;;;;2.00;2.00;;;;;;;;5023846;28;9634;-82
2022/08/29 03:38:38;;;;;;;;;1.00;1.00;;;;;;;;5021537;28;8881;-78
2022/08/29 03:41:08;;;;;;;;;1.25;1.25;;;;;;;;5022580;28;9815;-79
2022/08/29 03:43:36;;;;;;;;;1.00;1.00;;;;;;;;5018772;28;8943;-79
2022/08/29 03:46:03;;;;;;;;;1.00;1.00;;;;;;;;5020619;28;8877;-84
2022/08/29 03:48:32;;;;;;;;;2.00;2.00;;;;;;;;5022037;28;8892;-83
2022/08/29 03:50:59;;;;;;;;;1.00;0.75;;;;;;;;5019852;28;8881;-84
2022/08/29 03:53:26;;;;;;;;;1.00;1.00;;;;;;;;5022503;28;8941;-82
2022/08/29 03:55:54;;;;;;;;;2.00;2.00;;;;;;;;5021911;28;8876;-85
2022/08/29 03:58:22;;;;;;;;;2.25;1.00;;;;;;;;5020742;28;8873;-84
2022/08/29 04:00:50;;;;;;;;;1.50;0.75;;;;;;;;5018291;28;8843;-81
2022/08/29 04:03:18;;;;;;;;;1.00;1.00;;;;;;;;5019782;28;8905;-81
2022/08/29 04:05:46;;;;;;;;;3.75;2.00;;;;;;;;5003914;28;8887;-82
2022/08/29 04:08:13;;;;;;;;;0.75;0.75;;;;;;;;5021195;28;8907;-77
2022/08/29 04:10:41;;;;;;;;;1.25;1.25;;;;;;;;5026453;28;8862;-80
2022/08/29 04:13:09;;;;;;;;;2.00;2.00;;;;;;;;5019943;28;8881;-81
2022/08/29 04:15:40;;;;;;;;;1.00;1.00;;;;;;;;5018857;28;8877;-80
2022/08/29 04:18:09;;;;;;;;;0.00;0.00;;;;;;;;5018872;28;8881;-81
2022/08/29 04:20:38;;;;;;;;;1.00;1.00;;;;;;;;5014350;28;8997;-77
2022/08/29 04:23:06;;;;;;;;;1.25;1.25;;;;;;;;5017196;28;8880;-77
2022/08/29 04:25:35;;;;;;;;;3.00;1.00;;;;;;;;5020065;28;9006;-77
2022/08/29 04:28:04;;;;;;;;;2.00;1.00;;;;;;;;5021767;28;9646;-80
2022/08/29 04:30:32;;;;;;;;;2.25;1.00;;;;;;;;5018918;28;8827;-75
2022/08/29 04:33:01;;;;;;;;;4.00;1.00;;;;;;;;5020604;28;8875;-76
2022/08/29 04:35:31;;;;;;;;;1.00;1.00;;;;;;;;5019132;28;8918;-76
2022/08/29 04:37:58;;;;;;;;;1.00;1.00;;;;;;;;5018807;28;8896;-76
2022/08/29 04:40:26;;;;;;;;;1.75;1.75;;;;;;;;5018155;28;8903;-74
2022/08/29 04:42:53;;;;;;;;;1.00;1.00;;;;;;;;5019535;28;8881;-76
2022/08/29 04:45:22;;;;;;;;;1.50;1.50;;;;;;;;5006256;28;9626;-76
2022/08/29 04:47:49;;;;;;;;;1.75;1.75;;;;;;;;5017133;28;8857;-75
2022/08/29 04:50:20;;;;;;;;;2.00;2.00;;;;;;;;5019930;28;8881;-74
2022/08/29 04:52:49;;;;;;;;;1.50;1.50;;;;;;;;5003162;28;8889;-76
2022/08/29 04:55:17;;;;;;;;;2.50;2.00;;;;;;;;5019563;28;8881;-77
2022/08/29 04:57:44;;;;;;;;;1.00;1.00;;;;;;;;5018027;28;8872;-74
2022/08/29 05:00:15;;;;;;;;;3.50;1.00;;;;;;;;5018357;28;8904;-74
2022/08/29 05:02:43;;;;;;;;;1.00;1.00;;;;;;;;5023090;28;8876;-75
2022/08/29 05:05:13;;;;;;;;;1.25;1.25;;;;;;;;5018779;28;9677;-72
2022/08/29 05:07:44;;;;;;;;;2.00;2.00;;;;;;;;5021460;28;8897;-72
2022/08/29 05:10:13;;;;;;;;;1.00;1.00;;;;;;;;5017215;28;8874;-73
2022/08/29 05:12:40;;;;;;;;;1.50;1.50;;;;;;;;5018135;28;8889;-72
2022/08/29 05:15:09;;;;;;;;;1.25;0.75;;;;;;;;5018738;28;8957;-73
2022/08/29 05:17:37;;;;;;;;;2.00;2.00;;;;;;;;5016660;28;9619;-72
2022/08/29 05:20:06;;;;;;;;;2.75;1.50;;;;;;;;5017656;28;8848;-75
2022/08/29 05:22:33;;;;;;;;;2.00;2.00;;;;;;;;5022207;28;8954;-74
2022/08/29 05:25:03;;;;;;;;;1.00;1.00;;;;;;;;5021559;28;8975;-72
2022/08/29 05:27:31;;;;;;;;;2.75;1.00;;;;;;;;5020709;28;8899;-73
2022/08/29 05:29:58;;;;;;;;;3.00;1.50;;;;;;;;5023023;28;8860;-73
2022/08/29 05:32:25;;;;;;;;;3.50;2.00;;;;;;;;5022646;28;8819;-72
2022/08/29 05:34:54;;;;;;;;;1.50;1.50;;;;;;;;5023290;28;9643;-73
2022/08/29 05:37:22;;;;;;;;;1.00;1.00;;;;;;;;5016837;28;8841;-73
2022/08/29 05:39:51;;;;;;;;;1.00;1.00;;;;;;;;5021822;28;8880;-76
2022/08/29 05:42:20;;;;;;;;;1.50;1.50;;;;;;;;5021154;28;8868;-73
2022/08/29 05:44:48;;;;;;;;;1.50;1.50;;;;;;;;5022520;28;8873;-74
2022/08/29 05:47:17;;;;;;;;;1.00;1.00;;;;;;;;5019749;28;8860;-74
2022/08/29 05:49:45;;;;;;;;;1.75;1.75;;;;;;;;5020959;28;8864;-73
2022/08/29 05:52:13;;;;;;;;;1.00;1.00;;;;;;;;5017171;28;8958;-74
2022/08/29 05:54:42;;;;;;;;;1.75;1.75;;;;;;;;5024065;28;8884;-73
2022/08/29 05:57:11;;;;;;;;;2.00;2.00;;;;;;;;5021980;28;8873;-73
2022/08/29 05:59:40;;;;;;;;;2.00;2.00;;;;;;;;5022033;28;8852;-74
2022/08/29 06:02:09;;;;;;;;;2.00;2.00;;;;;;;;5019157;28;8844;-73
2022/08/29 06:04:37;;;;;;;;;1.00;1.00;;;;;;;;5023013;28;9762;-73
2022/08/29 06:07:05;;;;;;;;;4.00;3.00;;;;;;;;5019530;28;8906;-72
2022/08/29 06:09:32;;;;;;;;;1.00;1.00;;;;;;;;5022612;28;8893;-73
2022/08/29 06:12:00;;;;;;;;;1.00;1.00;;;;;;;;5021476;28;8880;-74
2022/08/29 06:14:27;;;;;;;;;1.00;1.00;;;;;;;;5022937;28;8881;-73
2022/08/29 06:16:56;;;;;;;;;1.25;1.25;;;;;;;;5016083;28;8833;-73
2022/08/29 06:19:24;;;;;;;;;2.00;1.00;;;;;;;;5022677;28;8875;-75
2022/08/29 06:21:51;;;;;;;;;4.25;1.00;;;;;;;;5025601;28;8869;-75
2022/08/29 06:24:18;;;;;;;;;1.00;1.00;;;;;;;;5024218;28;8908;-77
2022/08/29 06:26:46;;;;;;;;;3.00;1.00;;;;;;;;5023778;28;8998;-75
2022/08/29 06:29:14;;;;;;;;;2.00;2.00;;;;;;;;5010145;28;8903;-74
2022/08/29 06:31:42;;;;;;;;;1.75;1.75;;;;;;;;5023896;28;9688;-77
2022/08/29 06:34:11;;;;;;;;;1.50;1.50;;;;;;;;5023897;28;8868;-78
2022/08/29 06:36:38;;;;;;;;;3.75;2.50;;;;;;;;5023786;28;8914;-74
2022/08/29 06:39:07;;;;;;;;;2.00;1.25;;;;;;;;5023440;28;8876;-74
2022/08/29 06:41:35;;;;;;;;;1.00;1.00;;;;;;;;5024054;28;8864;-73
2022/08/29 06:44:03;;;;;;;;;3.50;2.00;;;;;;;;5025442;28;8899;-73
2022/08/29 06:46:32;;;;;;;;;1.00;1.00;;;;;;;;5021041;28;8860;-74
2022/08/29 06:49:01;;;;;;;;;3.00;1.75;;;;;;;;5023385;28;8912;-77
2022/08/29 06:51:33;;;;;;;;;2.00;2.00;;;;;;;;5021392;28;8848;-73
2022/08/29 06:54:01;;;;;;;;;1.00;1.00;;;;;;;;5024788;28;8879;-73
2022/08/29 06:56:29;;;;;;;;;2.00;2.00;;;;;;;;5024598;28;8888;-75
2022/08/29 06:58:56;;;;;;;;;2.00;1.00;;;;;;;;5024333;28;8879;-77
2022/08/29 07:01:24;;;;;;;;;1.75;1.75;;;;;;;;5023769;28;8824;-75
2022/08/29 07:03:53;;;;;;;;;3.75;1.25;;;;;;;;5021607;28;9031;-77
2022/08/29 07:06:22;;;;;;;;;1.25;1.25;;;;;;;;5020028;28;9028;-76
2022/08/29 07:08:51;;;;;;;;;0.50;0.50;;;;;;;;5049460;28;8872;-72
2022/08/29 07:11:19;;;;;;;;;5.75;3.00;;;;;;;;5023991;28;8871;-73
2022/08/29 07:13:46;;;;;;;;;1.25;1.25;;;;;;;;5024285;28;8882;-74
2022/08/29 07:16:17;;;;;;;;;1.00;1.00;;;;;;;;5023069;28;8903;-74
2022/08/29 07:18:45;;;;;;;;;1.50;1.50;;;;;;;;5013004;28;8876;-74
2022/08/29 07:21:14;;;;;;;;;3.00;1.00;;;;;;;;5023002;28;8899;-74
2022/08/29 07:23:41;;;;;;;;;3.00;2.00;;;;;;;;5021296;28;8864;-73
2022/08/29 07:26:11;;;;;;;;;1.00;1.00;;;;;;;;5020809;28;9003;-77
2022/08/29 07:28:39;;;;;;;;;4.25;2.25;;;;;;;;5019897;28;8856;-74
2022/08/29 07:31:07;;;;;;;;;2.00;2.00;;;;;;;;5023867;28;8807;-75
2022/08/29 07:33:34;;;;;;;;;2.00;2.00;;;;;;;;5023249;28;9594;-75
2022/08/29 07:36:02;;;;;;;;;2.50;1.25;;;;;;;;5026071;28;8898;-78
2022/08/29 07:38:31;;;;;;;;;1.75;1.75;;;;;;;;5022467;28;8898;-76
2022/08/29 07:40:59;;;;;;;;;2.00;2.00;;;;;;;;5021661;28;9642;-78
2022/08/29 07:43:28;;;;;;;;;2.00;2.00;;;;;;;;5020044;28;8891;-74
2022/08/29 07:45:56;;;;;;;;;1.75;1.75;;;;;;;;5023948;28;8915;-75
2022/08/29 07:48:23;;;;;;;;;2.50;1.00;;;;;;;;5020223;28;8974;-78
2022/08/29 07:50:51;;;;;;;;;1.00;1.00;;;;;;;;5022489;28;8852;-78
2022/08/29 07:53:18;;;;;;;;;3.50;2.00;;;;;;;;5023372;28;8864;-75
2022/08/29 07:55:46;;;;;;;;;1.00;1.00;;;;;;;;5021768;28;8876;-77
2022/08/29 07:58:13;;;;;;;;;1.40;1.00;;;;;;;;5005938;28;8907;-84
2022/08/29 08:00:42;;;;;;;;;1.00;1.00;;;;;;;;5021363;28;8818;-88
2022/08/29 08:03:11;;;;;;;;;2.00;2.00;;;;;;;;5022795;28;8922;-79
2022/08/29 08:05:38;;;;;;;;;2.20;2.20;;;;;;;;5021455;28;8865;-80
2022/08/29 08:08:08;;;;;;;;;2.40;2.40;;;;;;;;4966506;28;8889;-79
2022/08/29 08:10:38;;;;;;;;;1.00;1.00;;;;;;;;5018336;28;8860;-77
2022/08/29 08:13:05;;;;;;;;;1.00;1.00;;;;;;;;5019494;28;8861;-77
2022/08/29 08:15:32;;;;;;;;;1.40;1.40;;;;;;;;5009451;28;8868;-76
2022/08/29 08:18:01;;;;;;;;;2.00;2.00;;;;;;;;5020477;28;9665;-77
2022/08/29 08:20:28;;;;;;;;;2.60;1.00;;;;;;;;5021488;28;8899;-76
2022/08/29 08:22:56;;;;;;;;;0.80;0.80;;;;;;;;5022046;28;8875;-76
2022/08/29 08:25:24;;;;;;;;;3.00;3.00;;;;;;;;5021443;28;8933;-76
2022/08/29 08:27:52;;;;;;;;;2.40;2.40;;;;;;;;5015314;28;9042;-76
2022/08/29 08:30:20;;;;;;;;;2.60;1.80;;;;;;;;4994767;28;10132;-76
2022/08/29 08:32:47;;;;;;;;;2.80;2.40;;;;;;;;5021090;28;9026;-76
2022/08/29 08:35:18;;;;;;;;;1.80;1.80;;;;;;;;5021178;28;8872;-76
2022/08/29 08:37:46;;;;;;;;;2.00;2.00;;;;;;;;5021042;28;9030;-75
2022/08/29 08:40:21;;;;;;;;;3.00;3.00;;;;;;;;5022379;28;8848;-76
2022/08/29 08:42:49;;;;;;;;;3.00;1.40;;;;;;;;5019130;28;8880;-76
2022/08/29 08:45:19;;;;;;;;;1.40;1.40;;;;;;;;5020415;28;8974;-77
2022/08/29 08:47:50;;;;;;;;;2.00;2.00;;;;;;;;5013927;28;8888;-76
2022/08/29 08:50:25;;;;;;;;;2.00;2.00;;;;;;;;5022096;28;8872;-76
2022/08/29 08:52:56;;;;;;;;;2.40;2.40;;;;;;;;5020034;28;8998;-76
2022/08/29 08:55:28;;;;;;;;;2.20;2.20;;;;;;;;5022163;28;8875;-76
2022/08/29 08:58:02;;;;;;;;;1.00;1.00;;;;;;;;5020859;28;8865;-76
2022/08/29 09:00:36;;;;;;;;;3.60;1.80;;;;;;;;5020391;28;9612;-76
2022/08/29 09:03:10;;;;;;;;;1.00;1.00;;;;;;;;5020646;28;9026;-76
2022/08/29 09:05:48;;;;;;;;;1.60;0.80;;;;;;;;5020159;28;8872;-76
2022/08/29 09:08:21;;;;;;;;;1.80;1.80;;;;;;;;5021955;28;8888;-76
2022/08/29 09:10:56;;;;;;;;;1.80;1.40;;;;;;;;5020258;28;8934;-76
2022/08/29 09:13:35;;;;;;;;;1.00;1.00;;;;;;;;5021662;28;9023;-76
2022/08/29 09:16:07;;;;;;;;;2.60;1.60;;;;;;;;5019775;28;8892;-76
2022/08/29 09:18:38;;;;;;;;;2.60;0.60;;;;;;;;5020240;28;8881;-76
2022/08/29 09:21:13;;;;;;;;;2.40;2.40;;;;;;;;5020953;28;8892;-74
2022/08/29 09:23:43;;;;;;;;;1.80;1.80;;;;;;;;5019745;28;8880;-75
2022/08/29 09:26:11;;;;;;;;;1.60;1.60;;;;;;;;5019867;28;8966;-75
2022/08/29 09:28:38;;;;;;;;;2.00;1.40;;;;;;;;5021637;28;8882;-75
2022/08/29 09:31:22;;;;;;;;;3.00;1.20;;;;;;;;5019660;28;9377;-75
2022/08/29 09:33:52;;;;;;;;;0.00;0.00;;;;;;;;5022364;28;8918;-75
2022/08/29 09:36:42;;;;;;;;;2.00;2.00;;;;;;;;5020183;28;8971;-75
2022/08/29 09:39:15;;;;;;;;;1.40;1.40;;;;;;;;5018893;28;8880;-78
2022/08/29 09:41:44;;;;;;;;;3.40;2.00;;;;;;;;5021353;28;8883;-76
2022/08/29 09:44:18;;;;;;;;;1.60;1.60;;;;;;;;5024082;28;9672;-77
2022/08/29 09:46:45;;;;;;;;;2.40;2.40;;;;;;;;5019571;28;8969;-76
2022/08/29 09:49:16;;;;;;;;;2.60;2.60;;;;;;;;5021272;28;9002;-79
2022/08/29 09:51:48;;;;;;;;;0.40;0.20;;;;;;;;5029481;28;8970;-79
2022/08/29 09:54:19;;;;;;;;;1.00;1.00;;;;;;;;5026094;28;8844;-79
2022/08/29 09:56:51;;;;;;;;;1.00;1.00;;;;;;;;5019733;28;8903;-80
2022/08/29 09:59:24;;;;;;;;;1.60;1.60;;;;;;;;5026900;28;9659;-81
2022/08/29 10:02:14;;;;;;;;;1.00;1.00;;;;;;;;5023475;28;8858;-81
2022/08/29 10:04:44;;;;;;;;;1.40;1.40;;;;;;;;5025860;28;8882;-80
2022/08/29 10:07:19;;;;;;;;;2.20;1.00;;;;;;;;5026350;28;8872;-80
2022/08/29 10:10:00;;;;;;;;;2.40;2.00;;;;;;;;5016470;28;8907;-78
2022/08/29 10:12:37;;;;;;;;;2.40;1.00;;;;;;;;5025789;28;8941;-79
2022/08/29 10:15:09;;;;;;;;;0.00;0.00;;;;;;;;5022928;28;8852;-79
2022/08/29 10:20:32;;;;;;;;;1.20;1.00;;;;;;;;5024004;28;8828;-78
2022/08/29 10:23:05;;;;;;;;;1.60;1.00;;;;;;;;5025188;28;8884;-79
2022/08/29 10:25:36;;;;;;;;;1.00;1.00;;;;;;;;5025714;28;8879;-76
2022/08/29 10:28:09;;;;;;;;;1.00;1.00;;;;;;;;5024821;28;8903;-78
2022/08/29 10:30:42;;;;;;;;;2.00;2.00;;;;;;;;5021258;28;8858;-78
2022/08/29 10:33:19;;;;;;;;;1.60;1.60;;;;;;;;5021117;28;8899;-80
2022/08/29 10:35:53;;;;;;;;;0.20;0.20;;;;;;;;5024082;28;8871;-79
2022/08/29 10:38:33;;;;;;;;;2.00;2.00;;;;;;;;5023964;28;8973;-78
2022/08/29 10:41:06;;;;;;;;;2.00;2.00;;;;;;;;5016696;28;9488;-81
2022/08/29 10:43:39;;;;;;;;;3.40;3.40;;;;;;;;5024342;28;8869;-80
2022/08/29 10:46:40;;;;;;;;;1.40;1.40;;;;;;;;5024114;28;8880;-79
2022/08/29 10:49:17;;;;;;;;;2.00;2.00;;;;;;;;5022552;28;8999;-79
2022/08/29 10:51:51;;;;;;;;;0.80;0.80;;;;;;;;5024562;28;8911;-79
2022/08/29 10:54:29;;;;;;;;;1.80;1.80;;;;;;;;5023109;28;9745;-79
2022/08/29 10:56:56;;;;;;;;;0.00;0.00;;;;;;;;5024345;28;8890;-77
2022/08/29 10:59:31;;;;;;;;;3.00;1.80;;;;;;;;5024067;28;9034;-79
2022/08/29 11:02:03;;;;;;;;;1.00;1.00;;;;;;;;5015153;28;8825;-80
2022/08/29 11:04:36;;;;;;;;;1.00;1.00;;;;;;;;5022528;28;8887;-79
2022/08/29 11:07:07;;;;;;;;;2.00;1.20;;;;;;;;5024715;28;8872;-81
2022/08/29 11:09:41;;;;;;;;;1.20;1.20;;;;;;;;5025281;28;8969;-79
2022/08/29 11:12:12;;;;;;;;;2.00;2.00;;;;;;;;5022042;28;8856;-79
2022/08/29 11:14:44;;;;;;;;;0.00;0.00;;;;;;;;5024122;28;8898;-79
2022/08/29 11:17:14;;;;;;;;;3.00;2.00;;;;;;;;5022820;28;9750;-79
2022/08/29 11:19:52;;;;;;;;;1.40;1.40;;;;;;;;5022468;28;8898;-76
2022/08/29 11:22:24;;;;;;;;;0.80;0.80;;;;;;;;5023597;28;8852;-77
2022/08/29 11:25:04;;;;;;;;;1.00;1.00;;;;;;;;5023160;28;8856;-80
2022/08/29 11:27:40;;;;;;;;;0.60;0.60;;;;;;;;5020608;28;8875;-80
2022/08/29 11:30:12;;;;;;;;;5.00;2.00;;;;;;;;5002188;28;8882;-79
2022/08/29 11:32:47;;;;;;;;;1.80;1.80;;;;;;;;5021928;28;8863;-78
2022/08/29 11:35:20;;;;;;;;;2.60;1.00;;;;;;;;5026314;28;8894;-78
2022/08/29 11:38:16;;;;;;;;;2.60;2.60;;;;;;;;5021195;28;8884;-78
2022/08/29 11:40:58;;;;;;;;;4.00;2.40;;;;;;;;5020287;28;8868;-78
2022/08/29 11:43:29;;;;;;;;;1.80;1.80;;;;;;;;5023165;28;8873;-80
2022/08/29 11:45:59;;;;;;;;;0.80;0.80;;;;;;;;5022280;28;8895;-78
2022/08/29 11:48:34;;;;;;;;;2.40;1.00;;;;;;;;5004854;28;9674;-78
2022/08/29 11:51:29;;;;;;;;;2.00;2.00;;;;;;;;5022905;28;8864;-78
2022/08/29 11:53:57;;;;;;;;;1.00;1.00;;;;;;;;5024734;28;8876;-79
2022/08/29 11:56:29;;;;;;;;;3.00;3.00;;;;;;;;5025880;28;9615;-77
2022/08/29 11:58:58;;;;;;;;;1.80;1.60;;;;;;;;5022455;28;8860;-77
2022/08/29 12:01:59;;;;;;;;;2.00;2.00;;;;;;;;5023551;28;8813;-79
2022/08/29 12:04:54;;;;;;;;;2.20;2.20;;;;;;;;4962065;28;8863;-77
2022/08/29 12:07:32;;;;;;;;;2.00;2.00;;;;;;;;5018537;28;8884;-79
2022/08/29 12:10:02;;;;;;;;;1.80;1.80;;;;;;;;5022562;28;9660;-78
2022/08/29 12:12:49;;;;;;;;;2.60;1.80;;;;;;;;5013527;28;8861;-77
2022/08/29 12:15:53;;;;;;;;;4.80;3.20;;;;;;;;5022748;28;8880;-78
2022/08/29 12:18:36;;;;;;;;;3.60;2.00;;;;;;;;4967816;28;8835;-77
2022/08/29 12:21:33;;;;;;;;;2.40;2.00;;;;;;;;5018475;28;8958;-78
2022/08/29 12:24:00;;;;;;;;;2.20;2.20;;;;;;;;5023136;28;8906;-77
2022/08/29 12:26:42;;;;;;;;;1.40;1.40;;;;;;;;5023509;28;9642;-78
2022/08/29 12:29:20;;;;;;;;;2.00;2.00;;;;;;;;5005369;28;8914;-77
2022/08/29 12:32:21;;;;;;;;;2.00;2.00;;;;;;;;5022852;28;8962;-80
2022/08/29 12:35:03;;;;;;;;;4.40;2.20;;;;;;;;5020909;28;8880;-77
2022/08/29 12:37:43;;;;;;;;;2.00;2.00;;;;;;;;5018384;28;8876;-78
2022/08/29 12:40:41;;;;;;;;;1.40;1.40;;;;;;;;5021215;28;8864;-76
2022/08/29 12:43:21;;;;;;;;;1.00;1.00;;;;;;;;5007022;28;8910;-77
2022/08/29 12:45:50;;;;;;;;;3.00;1.80;;;;;;;;5011314;28;8888;-77
2022/08/29 12:48:21;;;;;;;;;2.60;2.40;;;;;;;;5022231;28;8887;-76
2022/08/29 12:50:49;;;;;;;;;2.40;2.40;;;;;;;;5021702;28;8888;-77
2022/08/29 12:53:22;;;;;;;;;5.00;2.80;;;;;;;;5022019;28;8895;-77
2022/08/29 12:55:51;;;;;;;;;1.60;1.60;;;;;;;;5021992;28;8947;-78
2022/08/29 12:58:38;;;;;;;;;2.00;2.00;;;;;;;;5003349;28;8884;-77
2022/08/29 13:01:22;;;;;;;;;2.80;2.00;;;;;;;;5017157;28;9198;-76
2022/08/29 13:03:59;;;;;;;;;2.00;2.00;;;;;;;;5021388;28;8907;-76
2022/08/29 13:06:27;;;;;;;;;3.00;3.00;;;;;;;;5021531;28;8865;-77
2022/08/29 13:08:54;;;;;;;;;2.00;2.00;;;;;;;;5021774;28;8872;-77
2022/08/29 13:11:24;;;;;;;;;2.00;2.00;;;;;;;;5022229;28;8868;-77
2022/08/29 13:14:02;;;;;;;;;2.80;2.00;;;;;;;;5022465;28;8853;-77
2022/08/29 13:16:32;;;;;;;;;2.00;2.00;;;;;;;;5022306;28;8882;-77
2022/08/29 13:18:59;;;;;;;;;1.80;1.80;;;;;;;;5023428;28;8898;-76
2022/08/29 13:21:27;;;;;;;;;2.80;2.00;;;;;;;;5016094;28;8991;-77
2022/08/29 13:24:01;;;;;;;;;2.00;2.00;;;;;;;;5023674;28;8983;-76
2022/08/29 13:26:31;;;;;;;;;4.00;2.00;;;;;;;;5024298;28;8861;-77
2022/08/29 13:29:01;;;;;;;;;3.00;3.00;;;;;;;;5027183;28;8876;-77
2022/08/29 13:31:33;;;;;;;;;3.00;2.00;;;;;;;;5020353;28;8825;-76
2022/08/29 13:34:21;;;;;;;;;2.20;1.80;;;;;;;;5026286;28;8998;-76
2022/08/29 13:37:01;;;;;;;;;1.40;1.40;;;;;;;;5027447;28;9642;-76
2022/08/29 13:39:37;;;;;;;;;1.20;1.20;;;;;;;;5021181;28;8886;-77
2022/08/29 13:42:20;;;;;;;;;1.80;1.80;;;;;;;;5027076;28;8876;-76
2022/08/29 13:45:08;;;;;;;;;1.00;1.00;;;;;;;;5027217;28;8903;-76
2022/08/29 13:47:51;;;;;;;;;2.80;1.80;;;;;;;;5024332;28;8876;-77
2022/08/29 13:50:18;;;;;;;;;0.40;0.40;;;;;;;;5026650;28;8892;-76
2022/08/29 13:52:45;;;;;;;;;2.60;2.60;;;;;;;;5025922;28;8922;-76
2022/08/29 13:55:12;;;;;;;;;3.80;2.60;;;;;;;;5019268;28;8884;-76
2022/08/29 13:57:41;;;;;;;;;2.00;2.00;;;;;;;;5026229;28;8885;-76
2022/08/29 14:00:11;;;;;;;;;1.60;1.60;;;;;;;;5025331;28;8881;-77
2022/08/29 14:02:40;;;;;;;;;1.00;1.00;;;;;;;;5026609;28;8837;-77
2022/08/29 14:05:08;;;;;;;;;2.00;2.00;;;;;;;;5024927;28;8984;-77
2022/08/29 14:07:37;;;;;;;;;2.00;2.00;;;;;;;;5026355;28;8876;-76
2022/08/29 14:10:05;;;;;;;;;3.00;1.40;;;;;;;;5025277;28;8879;-76
2022/08/29 14:12:33;;;;;;;;;3.00;1.20;;;;;;;;5020442;28;8884;-76
2022/08/29 14:15:01;;;;;;;;;1.80;1.80;;;;;;;;5023792;28;8891;-77
2022/08/29 14:17:29;;;;;;;;;2.80;2.80;;;;;;;;5022877;28;9685;-77
2022/08/29 14:19:57;;;;;;;;;3.20;3.20;;;;;;;;5021907;28;9599;-77
2022/08/29 14:22:25;;;;;;;;;3.00;3.00;;;;;;;;5022508;28;9715;-77
2022/08/29 14:24:52;;;;;;;;;3.60;2.00;;;;;;;;5010812;28;8863;-77
2022/08/29 14:27:21;;;;;;;;;2.60;2.60;;;;;;;;5023227;28;8872;-78
2022/08/29 14:29:49;;;;;;;;;2.00;2.00;;;;;;;;5022056;28;8873;-77
2022/08/29 14:32:17;;;;;;;;;3.00;3.00;;;;;;;;5015631;28;8874;-79
2022/08/29 14:34:44;;;;;;;;;2.80;2.60;;;;;;;;5022784;28;8885;-77
2022/08/29 14:37:13;;;;;;;;;3.20;2.00;;;;;;;;5024265;28;8848;-78
2022/08/29 14:39:41;;;;;;;;;3.20;2.00;;;;;;;;5023371;28;9842;-79
2022/08/29 14:42:08;;;;;;;;;3.20;2.00;;;;;;;;5024386;28;8888;-78
2022/08/29 14:44:36;;;;;;;;;3.20;3.00;;;;;;;;5006772;28;8979;-79
2022/08/29 14:47:03;;;;;;;;;2.40;2.40;;;;;;;;5023462;28;8890;-78
2022/08/29 14:49:31;;;;;;;;;3.00;3.00;;;;;;;;5022001;28;8856;-81
2022/08/29 14:51:59;;;;;;;;;2.40;2.40;;;;;;;;5021797;28;8883;-78
2022/08/29 14:54:27;;;;;;;;;3.80;3.80;;;;;;;;5023504;28;8872;-77
2022/08/29 14:56:54;;;;;;;;;2.00;2.00;;;;;;;;5022343;28;8914;-79
2022/08/29 14:59:24;;;;;;;;;2.60;2.60;;;;;;;;5023500;28;8995;-78
2022/08/29 15:01:51;;;;;;;;;1.80;1.80;;;;;;;;5021073;28;8844;-79
2022/08/29 15:04:19;;;;;;;;;3.00;3.00;;;;;;;;5021811;28;8886;-78
2022/08/29 15:06:46;;;;;;;;;3.00;3.00;;;;;;;;5020700;28;8884;-78
2022/08/29 15:09:14;;;;;;;;;2.60;2.60;;;;;;;;5022982;28;8883;-78
2022/08/29 15:11:43;;;;;;;;;2.40;2.40;;;;;;;;5022265;28;8922;-79
2022/08/29 15:14:11;;;;;;;;;2.00;2.00;;;;;;;;5021602;28;8967;-78
2022/08/29 15:16:38;;;;;;;;;1.50;1.50;;;;;;;;4980198;28;1157786;-79
2022/08/29 15:19:06;;;;;;;;;4.00;3.40;;;;;;;;5006099;28;9027;-77
2022/08/29 15:21:33;;;;;;;;;2.60;2.60;;;;;;;;5024412;28;9589;-77